createdAt,value
2019-05-15T00:00:53.821Z,0.00
2019-05-15T00:01:53.820Z,0.00
2019-05-15T00:02:53.814Z,0.00
2019-05-15T00:03:53.776Z,0.00
2019-05-15T00:04:53.804Z,0.00
2019-05-15T00:05:53.879Z,0.00
2019-05-15T00:06:53.824Z,0.00
2019-05-15T00:07:53.838Z,0.00
2019-05-15T00:08:53.770Z,0.00
2019-05-15T00:09:53.778Z,0.00
2019-05-15T00:10:53.785Z,0.00
2019-05-15T00:11:53.746Z,0.00
2019-05-15T00:12:54.104Z,0.00
2019-05-15T00:13:53.674Z,0.00
2019-05-15T00:14:53.766Z,0.00
2019-05-15T00:15:53.654Z,0.00
2019-05-15T00:16:53.710Z,0.00
2019-05-15T00:17:53.687Z,0.00
2019-05-15T00:18:53.612Z,0.00
2019-05-15T00:19:53.595Z,0.00
2019-05-15T00:20:53.587Z,0.00
2019-05-15T00:21:53.574Z,0.00
2019-05-15T00:22:53.603Z,0.00
2019-05-15T00:23:53.588Z,0.00
2019-05-15T00:24:53.537Z,0.00
2019-05-15T00:25:53.534Z,0.00
2019-05-15T00:26:53.518Z,0.00
2019-05-15T00:27:53.553Z,0.00
2019-05-15T00:28:53.505Z,0.00
2019-05-15T00:29:53.491Z,0.00
2019-05-15T00:30:53.480Z,0.00
2019-05-15T00:31:53.473Z,0.00
2019-05-15T00:32:53.489Z,0.00
2019-05-15T00:33:53.482Z,0.00
2019-05-15T00:34:53.428Z,0.00
2019-05-15T00:35:53.415Z,0.00
2019-05-15T00:36:53.400Z,0.00
2019-05-15T00:37:53.387Z,0.00
2019-05-15T00:38:53.407Z,0.00
2019-05-15T00:39:53.372Z,0.00
2019-05-15T00:40:53.360Z,0.00
2019-05-15T00:41:54.755Z,0.00
2019-05-15T00:42:53.374Z,0.00
2019-05-15T00:43:53.328Z,0.00
2019-05-15T00:44:53.330Z,0.00
2019-05-15T00:45:53.300Z,0.00
2019-05-15T00:46:53.292Z,0.00
2019-05-15T00:47:53.280Z,0.00
2019-05-15T00:48:53.302Z,0.00
2019-05-15T00:49:53.261Z,0.00
2019-05-15T00:50:53.243Z,0.00
2019-05-15T00:51:53.233Z,0.00
2019-05-15T00:52:53.232Z,0.00
2019-05-15T00:53:53.241Z,0.00
2019-05-15T00:54:53.207Z,0.00
2019-05-15T00:55:53.196Z,0.00
2019-05-15T00:56:53.181Z,0.00
2019-05-15T00:57:53.169Z,0.00
2019-05-15T00:58:53.192Z,0.00
2019-05-15T00:59:53.146Z,0.00
2019-05-15T01:00:53.185Z,0.00
2019-05-15T01:01:53.131Z,0.00
2019-05-15T01:02:53.149Z,0.00
2019-05-15T01:03:53.108Z,0.00
2019-05-15T01:04:53.100Z,0.00
2019-05-15T01:05:53.086Z,0.00
2019-05-15T01:06:53.089Z,0.00
2019-05-15T01:07:53.086Z,0.00
2019-05-15T01:08:53.083Z,0.00
2019-05-15T01:09:53.038Z,0.00
2019-05-15T01:10:53.025Z,0.00
2019-05-15T01:11:53.026Z,0.00
2019-05-15T01:12:53.010Z,0.00
2019-05-15T01:13:53.034Z,0.00
2019-05-15T01:14:52.988Z,0.00
2019-05-15T01:15:52.977Z,0.00
2019-05-15T01:16:52.963Z,0.00
2019-05-15T01:17:52.957Z,0.00
2019-05-15T01:18:52.978Z,0.00
2019-05-15T01:19:52.933Z,0.00
2019-05-15T01:20:52.924Z,0.00
2019-05-15T01:21:53.065Z,0.00
2019-05-15T01:22:52.974Z,0.00
2019-05-15T01:23:52.992Z,0.00
2019-05-15T01:24:52.895Z,0.00
2019-05-15T01:25:52.927Z,0.00
2019-05-15T01:26:52.920Z,0.00
2019-05-15T01:27:52.864Z,0.00
2019-05-15T01:28:52.879Z,0.00
2019-05-15T01:29:52.831Z,0.00
2019-05-15T01:30:52.825Z,0.00
2019-05-15T01:31:52.810Z,0.00
2019-05-15T01:32:52.823Z,0.00
2019-05-15T01:33:52.792Z,0.00
2019-05-15T01:34:52.802Z,0.00
2019-05-15T01:35:52.760Z,0.00
2019-05-15T01:36:52.743Z,0.00
2019-05-15T01:37:52.762Z,0.00
2019-05-15T01:38:52.759Z,0.00
2019-05-15T01:39:52.750Z,0.00
2019-05-15T01:40:52.701Z,0.00
2019-05-15T01:41:52.686Z,0.00
2019-05-15T01:42:52.677Z,0.00
2019-05-15T01:43:52.668Z,0.00
2019-05-15T01:44:52.661Z,0.00
2019-05-15T01:45:52.687Z,0.00
2019-05-15T01:46:52.640Z,0.00
2019-05-15T01:47:52.629Z,0.00
2019-05-15T01:48:52.649Z,0.00
2019-05-15T01:49:52.604Z,0.00
2019-05-15T01:50:52.594Z,0.00
2019-05-15T01:51:52.580Z,0.00
2019-05-15T01:52:52.578Z,0.00
2019-05-15T01:53:52.596Z,0.00
2019-05-15T01:54:52.554Z,0.00
2019-05-15T01:55:52.543Z,0.00
2019-05-15T01:56:52.541Z,0.00
2019-05-15T01:57:52.521Z,0.00
2019-05-15T01:58:52.530Z,0.00
2019-05-15T01:59:57.085Z,0.00
2019-05-15T02:00:53.519Z,0.00
2019-05-15T02:01:52.473Z,0.00
2019-05-15T02:02:52.461Z,0.00
2019-05-15T02:03:52.452Z,0.00
2019-05-15T02:04:52.444Z,0.00
2019-05-15T02:05:52.463Z,0.00
2019-05-15T02:06:52.424Z,0.00
2019-05-15T02:07:52.429Z,0.00
2019-05-15T02:08:52.395Z,0.00
2019-05-15T02:09:52.383Z,0.00
2019-05-15T02:10:52.409Z,0.00
2019-05-15T02:11:52.366Z,0.00
2019-05-15T02:12:52.351Z,0.00
2019-05-15T02:13:52.375Z,0.00
2019-05-15T02:14:52.331Z,0.00
2019-05-15T02:15:52.318Z,0.00
2019-05-15T02:16:52.315Z,0.00
2019-05-15T02:17:52.302Z,0.00
2019-05-15T02:18:52.311Z,0.00
2019-05-15T02:19:52.280Z,0.00
2019-05-15T02:20:52.298Z,0.00
2019-05-15T02:21:52.254Z,0.00
2019-05-15T02:22:52.244Z,0.00
2019-05-15T02:23:52.265Z,0.00
2019-05-15T02:24:52.230Z,0.00
2019-05-15T02:25:52.215Z,0.00
2019-05-15T02:26:52.220Z,0.00
2019-05-15T02:27:52.189Z,0.00
2019-05-15T02:28:52.215Z,0.00
2019-05-15T02:29:52.173Z,0.00
2019-05-15T02:30:52.161Z,0.00
2019-05-15T02:31:52.184Z,0.00
2019-05-15T02:32:52.136Z,0.00
2019-05-15T02:33:52.128Z,0.00
2019-05-15T02:34:52.127Z,0.00
2019-05-15T02:35:52.107Z,0.00
2019-05-15T02:36:52.092Z,0.00
2019-05-15T02:37:52.114Z,0.00
2019-05-15T02:38:52.070Z,0.00
2019-05-15T02:39:52.069Z,4.00
2019-05-15T02:40:52.054Z,4.00
2019-05-15T02:41:52.044Z,4.00
2019-05-15T02:42:52.052Z,4.00
2019-05-15T02:43:52.018Z,0.00
2019-05-15T02:44:52.021Z,4.00
2019-05-15T02:45:52.010Z,4.00
2019-05-15T02:46:51.992Z,8.00
2019-05-15T02:47:52.009Z,4.00
2019-05-15T02:48:51.983Z,8.00
2019-05-15T02:49:51.954Z,8.00
2019-05-15T02:50:51.942Z,8.00
2019-05-15T02:51:51.930Z,12.00
2019-05-15T02:52:51.953Z,12.00
2019-05-15T02:53:51.931Z,16.00
2019-05-15T02:54:51.919Z,16.00
2019-05-15T02:55:51.895Z,16.00
2019-05-15T02:56:51.884Z,16.00
2019-05-15T02:57:51.888Z,20.00
2019-05-15T02:58:51.863Z,24.00
2019-05-15T02:59:51.897Z,24.00
2019-05-15T03:00:53.515Z,28.00
2019-05-15T03:01:51.824Z,28.00
2019-05-15T03:02:51.846Z,32.00
2019-05-15T03:03:51.834Z,40.00
2019-05-15T03:04:51.795Z,40.00
2019-05-15T03:05:51.784Z,44.00
2019-05-15T03:06:51.776Z,48.00
2019-05-15T03:07:51.799Z,56.00
2019-05-15T03:08:51.748Z,60.00
2019-05-15T03:09:51.738Z,68.00
2019-05-15T03:10:51.728Z,72.00
2019-05-15T03:11:51.717Z,80.00
2019-05-15T03:12:51.713Z,88.00
2019-05-15T03:13:51.733Z,96.00
2019-05-15T03:14:51.685Z,104.00
2019-05-15T03:15:51.677Z,112.00
2019-05-15T03:16:51.669Z,120.00
2019-05-15T03:17:51.660Z,128.00
2019-05-15T03:18:55.580Z,132.00
2019-05-15T03:19:51.652Z,140.00
2019-05-15T03:20:51.624Z,152.00
2019-05-15T03:21:51.610Z,160.00
2019-05-15T03:22:51.601Z,172.00
2019-05-15T03:23:51.623Z,180.00
2019-05-15T03:24:51.615Z,188.00
2019-05-15T03:25:51.579Z,196.00
2019-05-15T03:26:51.577Z,208.00
2019-05-15T03:27:51.555Z,220.00
2019-05-15T03:28:51.537Z,224.00
2019-05-15T03:29:51.548Z,236.00
2019-05-15T03:31:15.647Z,248.00
2019-05-15T03:32:07.479Z,256.00
2019-05-15T03:33:00.758Z,264.00
2019-05-15T03:33:54.720Z,272.00
2019-05-15T03:34:56.116Z,284.00
2019-05-15T03:35:54.476Z,292.00
2019-05-15T03:36:53.001Z,304.00
2019-05-15T03:37:51.449Z,312.00
2019-05-15T03:38:51.438Z,320.00
2019-05-15T03:39:52.051Z,328.00
2019-05-15T03:40:51.409Z,336.00
2019-05-15T03:41:51.413Z,344.00
2019-05-15T03:42:51.398Z,356.00
2019-05-15T03:43:51.383Z,368.00
2019-05-15T03:44:51.374Z,376.00
2019-05-15T03:45:51.403Z,380.00
2019-05-15T03:46:51.347Z,392.00
2019-05-15T03:47:51.343Z,396.00
2019-05-15T03:48:51.334Z,408.00
2019-05-15T03:49:51.323Z,416.00
2019-05-15T03:50:51.357Z,428.00
2019-05-15T03:51:51.300Z,444.00
2019-05-15T03:52:51.285Z,464.00
2019-05-15T03:53:51.275Z,492.00
2019-05-15T03:54:51.284Z,516.00
2019-05-15T03:55:51.284Z,544.00
2019-05-15T03:56:51.249Z,564.00
2019-05-15T03:57:51.241Z,584.00
2019-05-15T03:58:51.225Z,608.00
2019-05-15T03:59:51.229Z,636.00
2019-05-15T04:00:51.238Z,656.00
2019-05-15T04:01:51.202Z,680.00
2019-05-15T04:02:51.186Z,704.00
2019-05-15T04:03:51.177Z,736.00
2019-05-15T04:04:51.158Z,756.00
2019-05-15T04:05:51.172Z,784.00
2019-05-15T04:06:51.153Z,816.00
2019-05-15T04:07:51.129Z,856.00
2019-05-15T04:08:51.126Z,896.00
2019-05-15T04:09:51.109Z,928.00
2019-05-15T04:10:51.119Z,944.00
2019-05-15T04:11:51.086Z,952.00
2019-05-15T04:12:51.070Z,968.00
2019-05-15T04:13:51.062Z,988.00
2019-05-15T04:14:51.085Z,980.00
2019-05-15T04:15:51.040Z,976.00
2019-05-15T04:16:51.061Z,972.00
2019-05-15T04:17:51.024Z,984.00
2019-05-15T04:18:51.017Z,1004.00
2019-05-15T04:19:51.030Z,1020.00
2019-05-15T04:20:51.034Z,1032.00
2019-05-15T04:21:50.990Z,1040.00
2019-05-15T04:22:50.978Z,1048.00
2019-05-15T04:23:50.964Z,1052.00
2019-05-15T04:24:50.941Z,1052.00
2019-05-15T04:25:50.935Z,1024.00
2019-05-15T04:26:50.953Z,984.00
2019-05-15T04:27:50.909Z,924.00
2019-05-15T04:28:50.904Z,872.00
2019-05-15T04:29:50.950Z,836.00
2019-05-15T04:30:50.936Z,816.00
2019-05-15T04:32:00.585Z,824.00
2019-05-15T04:32:51.910Z,824.00
2019-05-15T04:33:50.913Z,840.00
2019-05-15T04:34:50.890Z,876.00
2019-05-15T04:35:50.903Z,920.00
2019-05-15T04:36:50.920Z,988.00
2019-05-15T04:37:50.848Z,1056.00
2019-05-15T04:38:50.849Z,1136.00
2019-05-15T04:39:50.838Z,1248.00
2019-05-15T04:40:50.858Z,1372.00
2019-05-15T04:41:50.876Z,1460.00
2019-05-15T04:42:50.809Z,1540.00
2019-05-15T04:43:50.795Z,1580.00
2019-05-15T04:44:50.800Z,1612.00
2019-05-15T04:45:50.820Z,1684.00
2019-05-15T04:46:50.810Z,1800.00
2019-05-15T04:47:50.754Z,1932.00
2019-05-15T04:48:50.888Z,2052.00
2019-05-15T04:49:50.736Z,2156.00
2019-05-15T04:50:50.709Z,2252.00
2019-05-15T04:51:50.763Z,2296.00
2019-05-15T04:52:50.701Z,2248.00
2019-05-15T04:53:50.722Z,2176.00
2019-05-15T04:54:50.679Z,2176.00
2019-05-15T04:55:50.671Z,2196.00
2019-05-15T04:56:51.207Z,2216.00
2019-05-15T04:57:50.635Z,2240.00
2019-05-15T04:58:51.262Z,2296.00
2019-05-15T04:59:50.628Z,2380.00
2019-05-15T05:00:50.760Z,2448.00
2019-05-15T05:01:53.343Z,2484.00
2019-05-15T05:02:51.605Z,2564.00
2019-05-15T05:03:50.592Z,2604.00
2019-05-15T05:04:50.572Z,2540.00
2019-05-15T05:05:50.670Z,2460.00
2019-05-15T05:06:50.611Z,2416.00
2019-05-15T05:07:50.547Z,2444.00
2019-05-15T05:08:50.521Z,2552.00
2019-05-15T05:09:50.523Z,2652.00
2019-05-15T05:10:50.511Z,2792.00
2019-05-15T05:11:50.454Z,2884.00
2019-05-15T05:12:51.017Z,2920.00
2019-05-15T05:13:51.779Z,2928.00
2019-05-15T05:14:50.404Z,2984.00
2019-05-15T05:15:50.785Z,3080.00
2019-05-15T05:16:50.433Z,3196.00
2019-05-15T05:17:50.369Z,3348.00
2019-05-15T05:18:50.356Z,3532.00
2019-05-15T05:19:51.414Z,3652.00
2019-05-15T05:20:50.342Z,3688.00
2019-05-15T05:21:50.362Z,3692.00
2019-05-15T05:22:50.313Z,3716.00
2019-05-15T05:23:50.305Z,3728.00
2019-05-15T05:24:50.298Z,3756.00
2019-05-15T05:25:50.286Z,3760.00
2019-05-15T05:26:50.310Z,3736.00
2019-05-15T05:27:50.266Z,3680.00
2019-05-15T05:28:50.255Z,3720.00
2019-05-15T05:29:50.238Z,3796.00
2019-05-15T05:30:50.229Z,3888.00
2019-05-15T05:31:50.250Z,3968.00
2019-05-15T05:32:50.213Z,3964.00
2019-05-15T05:33:50.201Z,3932.00
2019-05-15T05:34:50.193Z,3832.00
2019-05-15T05:35:50.179Z,3812.00
2019-05-15T05:36:50.164Z,3772.00
2019-05-15T05:37:50.186Z,3776.00
2019-05-15T05:38:50.149Z,3764.00
2019-05-15T05:39:50.137Z,3772.00
2019-05-15T05:40:50.269Z,3732.00
2019-05-15T05:41:50.143Z,3688.00
2019-05-15T05:42:50.101Z,3616.00
2019-05-15T05:43:50.088Z,3600.00
2019-05-15T05:44:50.099Z,3652.00
2019-05-15T05:45:50.103Z,3692.00
2019-05-15T05:46:50.063Z,3728.00
2019-05-15T05:47:50.075Z,3800.00
2019-05-15T05:48:50.040Z,3900.00
2019-05-15T05:49:50.025Z,3988.00
2019-05-15T05:50:50.336Z,4036.00
2019-05-15T05:51:50.004Z,4084.00
2019-05-15T05:52:50.029Z,4132.00
2019-05-15T05:53:50.600Z,4212.00
2019-05-15T05:54:50.002Z,4340.00
2019-05-15T05:55:52.920Z,4492.00
2019-05-15T05:56:49.980Z,4560.00
2019-05-15T05:57:50.175Z,4612.00
2019-05-15T05:58:49.933Z,4596.00
2019-05-15T05:59:49.925Z,4580.00
2019-05-15T06:00:49.965Z,4536.00
2019-05-15T06:01:49.898Z,4464.00
2019-05-15T06:02:52.315Z,4428.00
2019-05-15T06:03:49.876Z,4428.00
2019-05-15T06:04:49.868Z,4392.00
2019-05-15T06:05:50.070Z,4384.00
2019-05-15T06:07:06.037Z,4372.00
2019-05-15T06:07:51.182Z,4420.00
2019-05-15T06:08:49.820Z,4484.00
2019-05-15T06:09:49.809Z,4564.00
2019-05-15T06:10:50.097Z,4728.00
2019-05-15T06:11:49.829Z,4936.00
2019-05-15T06:12:49.836Z,5136.00
2019-05-15T06:13:52.449Z,5344.00
2019-05-15T06:14:49.756Z,5520.00
2019-05-15T06:15:49.747Z,5700.00
2019-05-15T06:16:49.739Z,5876.00
2019-05-15T06:17:49.760Z,6052.00
2019-05-15T06:18:49.719Z,6184.00
2019-05-15T06:19:49.708Z,6280.00
2019-05-15T06:20:50.124Z,6308.00
2019-05-15T06:21:56.741Z,6300.00
2019-05-15T06:22:50.736Z,6344.00
2019-05-15T06:23:55.781Z,6428.00
2019-05-15T06:24:50.658Z,6444.00
2019-05-15T06:25:49.662Z,6420.00
2019-05-15T06:26:49.629Z,6308.00
2019-05-15T06:27:49.641Z,6216.00
2019-05-15T06:28:49.614Z,6184.00
2019-05-15T06:29:49.602Z,6304.00
2019-05-15T06:30:49.718Z,6440.00
2019-05-15T06:31:49.583Z,6648.00
2019-05-15T06:33:04.457Z,6884.00
2019-05-15T06:33:50.555Z,7368.00
2019-05-15T06:34:49.545Z,7456.00
2019-05-15T06:35:49.545Z,7816.00
2019-05-15T06:36:49.565Z,8512.00
2019-05-15T06:37:49.549Z,9396.00
2019-05-15T06:38:49.508Z,10180.00
2019-05-15T06:39:49.577Z,10792.00
2019-05-15T06:40:49.490Z,11204.00
2019-05-15T06:41:49.470Z,11600.00
2019-05-15T06:42:49.497Z,11820.00
2019-05-15T06:43:49.806Z,12256.00
2019-05-15T06:44:49.629Z,12792.00
2019-05-15T06:45:49.632Z,13384.00
2019-05-15T06:46:49.560Z,13244.00
2019-05-15T06:47:49.440Z,12024.00
2019-05-15T06:48:49.507Z,11564.00
2019-05-15T06:49:49.467Z,12748.00
2019-05-15T06:50:49.561Z,12180.00
2019-05-15T06:51:49.431Z,11580.00
2019-05-15T06:52:49.465Z,10940.00
2019-05-15T06:53:49.415Z,10352.00
2019-05-15T06:54:49.387Z,9912.00
2019-05-15T06:55:49.385Z,9616.00
2019-05-15T06:56:49.476Z,9736.00
2019-05-15T06:57:49.438Z,9956.00
2019-05-15T06:58:49.308Z,10268.00
2019-05-15T06:59:49.329Z,10536.00
2019-05-15T07:00:49.752Z,10684.00
2019-05-15T07:01:49.378Z,10764.00
2019-05-15T07:02:49.378Z,10712.00
2019-05-15T07:03:49.315Z,10584.00
2019-05-15T07:04:49.292Z,10428.00
2019-05-15T07:05:50.596Z,10288.00
2019-05-15T07:06:49.267Z,10096.00
2019-05-15T07:07:49.252Z,9932.00
2019-05-15T07:08:49.879Z,9136.00
2019-05-15T07:09:49.236Z,7548.00
2019-05-15T07:10:49.246Z,7316.00
2019-05-15T07:11:49.212Z,6080.00
2019-05-15T07:12:51.552Z,6136.00
2019-05-15T07:13:49.240Z,7356.00
2019-05-15T07:14:49.165Z,7340.00
2019-05-15T07:15:49.851Z,8808.00
2019-05-15T07:16:49.168Z,8876.00
2019-05-15T07:17:49.157Z,9456.00
2019-05-15T07:18:49.403Z,10604.00
2019-05-15T07:19:49.124Z,12652.00
2019-05-15T07:20:49.278Z,11620.00
2019-05-15T07:21:49.099Z,11584.00
2019-05-15T07:22:49.284Z,13712.00
2019-05-15T07:23:49.780Z,11220.00
2019-05-15T07:24:49.046Z,10748.00
2019-05-15T07:25:50.008Z,11524.00
2019-05-15T07:26:49.094Z,11688.00
2019-05-15T07:27:49.019Z,11916.00
2019-05-15T07:28:49.080Z,15228.00
2019-05-15T07:29:49.005Z,21024.00
2019-05-15T07:30:49.697Z,17792.00
2019-05-15T07:31:48.929Z,44416.00
2019-05-15T07:32:48.933Z,26528.00
2019-05-15T07:33:49.339Z,18240.00
2019-05-15T07:34:48.975Z,19744.00
2019-05-15T07:35:49.610Z,19520.00
2019-05-15T07:36:49.412Z,18880.00
2019-05-15T07:37:48.868Z,19104.00
2019-05-15T07:38:48.890Z,21696.00
2019-05-15T07:39:48.999Z,23968.00
2019-05-15T07:40:55.681Z,29088.00
2019-05-15T07:41:49.829Z,41184.00
2019-05-15T07:42:49.207Z,21760.00
2019-05-15T07:43:50.606Z,30304.00
2019-05-15T07:44:48.794Z,28352.00
2019-05-15T07:45:53.558Z,25472.00
2019-05-15T07:46:49.872Z,18752.00
2019-05-15T07:47:49.075Z,24512.00
2019-05-15T07:48:49.266Z,26400.00
2019-05-15T07:49:49.294Z,21344.00
2019-05-15T07:50:49.754Z,20480.00
2019-05-15T07:51:48.999Z,19104.00
2019-05-15T07:52:48.719Z,19616.00
2019-05-15T07:53:49.170Z,21024.00
2019-05-15T07:54:48.919Z,25024.00
2019-05-15T07:55:50.258Z,24000.00
2019-05-15T07:56:48.959Z,26240.00
2019-05-15T07:57:49.656Z,23232.00
2019-05-15T07:58:52.571Z,22112.00
2019-05-15T07:59:48.632Z,29248.00
2019-05-15T08:00:49.325Z,29984.00
2019-05-15T08:01:49.015Z,21184.00
2019-05-15T08:02:48.598Z,19104.00
2019-05-15T08:03:58.971Z,24256.00
2019-05-15T08:04:49.581Z,34816.00
2019-05-15T08:05:58.654Z,45312.00
2019-05-15T08:06:49.627Z,57824.00
2019-05-15T08:07:49.133Z,55712.00
2019-05-15T08:08:48.846Z,69728.00
2019-05-15T08:09:48.799Z,82368.00
2019-05-15T08:10:49.207Z,67328.00
2019-05-15T08:11:48.849Z,76608.00
2019-05-15T08:12:49.438Z,48256.00
2019-05-15T08:13:48.761Z,41824.00
2019-05-15T08:14:50.867Z,38656.00
2019-05-15T08:15:48.981Z,31232.00
2019-05-15T08:16:48.676Z,28256.00
2019-05-15T08:18:49.429Z,56864.00
2019-05-15T08:19:48.734Z,49952.00
2019-05-15T08:20:49.213Z,48832.00
2019-05-15T08:21:51.789Z,42656.00
2019-05-15T08:22:49.054Z,46592.00
2019-05-15T08:23:48.649Z,49984.00
2019-05-15T08:24:48.524Z,47520.00
2019-05-15T08:25:48.757Z,43232.00
2019-05-15T08:26:05.717Z,31136.00
2019-05-15T08:26:48.775Z,50176.00
2019-05-15T08:27:48.628Z,57760.00
2019-05-15T08:28:48.861Z,58336.00
2019-05-15T08:29:48.700Z,79104.00
2019-05-15T08:30:49.307Z,52480.00
2019-05-15T08:31:48.553Z,28928.00
2019-05-15T08:32:51.361Z,21888.00
2019-05-15T08:33:48.365Z,19968.00
2019-05-15T08:34:48.260Z,20704.00
2019-05-15T08:35:51.579Z,22208.00
2019-05-15T08:36:48.459Z,23872.00
2019-05-15T08:37:49.046Z,30112.00
2019-05-15T08:38:48.729Z,35328.00
2019-05-15T08:39:48.752Z,38752.00
2019-05-15T08:40:49.001Z,50496.00
2019-05-15T08:41:48.555Z,32384.00
2019-05-15T08:42:56.525Z,31968.00
2019-05-15T08:43:49.171Z,30016.00
2019-05-15T08:44:48.976Z,35584.00
2019-05-15T08:45:49.751Z,46304.00
2019-05-15T08:46:48.220Z,42688.00
2019-05-15T08:47:49.204Z,39296.00
2019-05-15T08:48:49.091Z,39296.00
2019-05-15T08:49:48.469Z,40608.00
2019-05-15T08:50:48.968Z,60768.00
2019-05-15T08:51:48.654Z,56864.00
2019-05-15T08:52:48.812Z,56256.00
2019-05-15T08:53:48.779Z,44704.00
2019-05-15T08:54:48.603Z,28832.00
2019-05-15T08:55:48.234Z,25344.00
2019-05-15T08:56:48.539Z,23424.00
2019-05-15T08:57:55.615Z,22912.00
2019-05-15T08:58:49.050Z,21984.00
2019-05-15T08:59:48.808Z,23584.00
2019-05-15T09:00:52.303Z,29344.00
2019-05-15T09:01:48.936Z,34496.00
2019-05-15T09:02:48.824Z,37280.00
2019-05-15T09:03:48.879Z,28960.00
2019-05-15T09:04:48.676Z,23328.00
2019-05-15T09:05:48.713Z,22976.00
2019-05-15T09:06:49.739Z,22720.00
2019-05-15T09:07:48.712Z,31648.00
2019-05-15T09:08:49.097Z,47200.00
2019-05-15T09:09:48.732Z,45856.00
2019-05-15T09:10:50.232Z,22080.00
2019-05-15T09:11:48.382Z,31840.00
2019-05-15T09:12:50.200Z,54112.00
2019-05-15T09:13:53.805Z,110208.00
2019-05-15T09:14:48.867Z,73792.00
2019-05-15T09:15:48.286Z,41056.00
2019-05-15T09:16:49.021Z,30176.00
2019-05-15T09:17:48.773Z,24128.00
2019-05-15T09:18:48.595Z,22400.00
2019-05-15T09:19:48.275Z,24480.00
2019-05-15T09:20:49.153Z,34560.00
2019-05-15T09:21:49.120Z,69504.00
2019-05-15T09:22:49.062Z,76064.00
2019-05-15T09:23:49.812Z,103936.00
2019-05-15T09:24:48.887Z,101600.00
2019-05-15T09:25:49.293Z,51584.00
2019-05-15T09:26:48.748Z,76416.00
2019-05-15T09:27:48.792Z,51072.00
2019-05-15T09:28:49.389Z,57408.00
2019-05-15T09:29:48.444Z,67744.00
2019-05-15T09:30:48.299Z,65312.00
2019-05-15T09:31:48.280Z,66208.00
2019-05-15T09:32:48.425Z,112160.00
2019-05-15T09:33:49.266Z,117280.00
2019-05-15T09:34:54.205Z,121152.00
2019-05-15T09:35:49.219Z,89632.00
2019-05-15T09:36:48.617Z,41920.00
2019-05-15T09:37:48.851Z,30368.00
2019-05-15T09:38:49.148Z,29760.00
2019-05-15T09:39:48.981Z,33568.00
2019-05-15T09:40:50.156Z,53792.00
2019-05-15T09:41:48.754Z,98816.00
2019-05-15T09:42:48.715Z,34656.00
2019-05-15T09:43:48.509Z,22496.00
2019-05-15T09:44:48.660Z,20448.00
2019-05-15T09:45:49.259Z,23456.00
2019-05-15T09:46:48.868Z,35104.00
2019-05-15T09:47:48.320Z,49344.00
2019-05-15T09:48:51.403Z,52832.00
2019-05-15T09:49:48.519Z,43008.00
2019-05-15T09:50:49.229Z,34176.00
2019-05-15T09:51:49.045Z,34848.00
2019-05-15T09:52:50.116Z,29024.00
2019-05-15T09:53:48.403Z,30112.00
2019-05-15T09:54:49.059Z,28704.00
2019-05-15T09:55:49.365Z,44736.00
2019-05-15T09:56:49.405Z,31200.00
2019-05-15T09:57:49.119Z,29408.00
2019-05-15T09:58:48.797Z,42944.00
2019-05-15T09:59:48.789Z,31296.00
2019-05-15T10:00:52.336Z,23648.00
2019-05-15T10:01:48.467Z,32288.00
2019-05-15T10:02:48.518Z,52608.00
2019-05-15T10:03:48.463Z,24544.00
2019-05-15T10:04:49.590Z,22496.00
2019-05-15T10:05:48.461Z,36448.00
2019-05-15T10:06:48.606Z,15096.00
2019-05-15T10:07:47.340Z,12144.00
2019-05-15T10:08:49.016Z,12112.00
2019-05-15T10:09:48.783Z,11908.00
2019-05-15T10:10:48.731Z,12016.00
2019-05-15T10:11:49.178Z,12484.00
2019-05-15T10:12:49.480Z,12140.00
2019-05-15T10:13:47.246Z,12824.00
2019-05-15T10:14:49.181Z,14556.00
2019-05-15T10:15:50.653Z,14096.00
2019-05-15T10:16:48.623Z,14884.00
2019-05-15T10:17:50.763Z,18016.00
2019-05-15T10:18:50.812Z,15748.00
2019-05-15T10:19:48.804Z,15268.00
2019-05-15T10:20:47.173Z,15168.00
2019-05-15T10:21:53.044Z,15004.00
2019-05-15T10:22:48.471Z,15144.00
2019-05-15T10:23:49.401Z,14848.00
2019-05-15T10:24:50.889Z,15172.00
2019-05-15T10:25:48.573Z,17280.00
2019-05-15T10:26:49.047Z,18208.00
2019-05-15T10:27:48.768Z,20064.00
2019-05-15T10:28:49.333Z,21152.00
2019-05-15T10:29:48.435Z,24448.00
2019-05-15T10:30:49.339Z,20992.00
2019-05-15T10:31:48.244Z,20864.00
2019-05-15T10:32:48.681Z,17536.00
2019-05-15T10:33:49.118Z,15972.00
2019-05-15T10:34:47.062Z,15488.00
2019-05-15T10:35:47.014Z,14840.00
2019-05-15T10:36:49.375Z,13340.00
2019-05-15T10:37:48.707Z,11960.00
2019-05-15T10:38:48.893Z,11696.00
2019-05-15T10:39:52.076Z,11684.00
2019-05-15T10:41:00.206Z,11704.00
2019-05-15T10:41:48.324Z,11568.00
2019-05-15T10:42:49.453Z,11124.00
2019-05-15T10:43:55.632Z,10856.00
2019-05-15T10:44:48.800Z,10436.00
2019-05-15T10:45:50.115Z,9592.00
2019-05-15T10:46:48.254Z,8512.00
2019-05-15T10:47:49.400Z,7780.00
2019-05-15T10:48:49.401Z,7244.00
2019-05-15T10:49:48.415Z,6888.00
2019-05-15T10:50:46.885Z,6692.00
2019-05-15T10:51:46.838Z,6680.00
2019-05-15T10:52:48.938Z,6760.00
2019-05-15T10:53:48.714Z,7028.00
2019-05-15T10:54:46.810Z,7508.00
2019-05-15T10:55:49.226Z,8036.00
2019-05-15T10:56:46.787Z,8792.00
2019-05-15T10:57:46.799Z,9604.00
2019-05-15T10:58:50.128Z,10052.00
2019-05-15T10:59:47.799Z,10108.00
2019-05-15T11:00:49.274Z,10264.00
2019-05-15T11:01:48.772Z,10156.00
2019-05-15T11:02:48.879Z,9856.00
2019-05-15T11:03:49.250Z,9348.00
2019-05-15T11:04:48.721Z,8480.00
2019-05-15T11:05:48.953Z,7848.00
2019-05-15T11:06:48.875Z,7572.00
2019-05-15T11:07:48.228Z,7140.00
2019-05-15T11:08:51.000Z,6564.00
2019-05-15T11:09:48.957Z,6104.00
2019-05-15T11:10:49.427Z,6000.00
2019-05-15T11:11:48.674Z,6224.00
2019-05-15T11:12:46.635Z,6584.00
2019-05-15T11:13:46.612Z,6928.00
2019-05-15T11:14:46.593Z,7160.00
2019-05-15T11:15:48.876Z,7252.00
2019-05-15T11:16:48.696Z,7100.00
2019-05-15T11:17:48.961Z,6696.00
2019-05-15T11:18:48.196Z,6336.00
2019-05-15T11:19:49.919Z,6152.00
2019-05-15T11:20:48.691Z,6044.00
2019-05-15T11:21:48.545Z,6028.00
2019-05-15T11:22:49.643Z,6088.00
2019-05-15T11:23:49.198Z,6032.00
2019-05-15T11:24:48.706Z,5872.00
2019-05-15T11:25:48.473Z,5632.00
2019-05-15T11:26:49.649Z,5500.00
2019-05-15T11:27:48.384Z,5400.00
2019-05-15T11:28:49.422Z,5520.00
2019-05-15T11:29:47.772Z,5812.00
2019-05-15T11:30:48.924Z,6036.00
2019-05-15T11:31:48.602Z,6320.00
2019-05-15T11:32:48.706Z,6432.00
2019-05-15T11:33:49.096Z,6524.00
2019-05-15T11:34:49.099Z,6576.00
2019-05-15T11:35:57.884Z,6612.00
2019-05-15T11:36:48.243Z,6636.00
2019-05-15T11:37:48.873Z,6728.00
2019-05-15T11:38:48.609Z,6968.00
2019-05-15T11:39:47.225Z,7456.00
2019-05-15T11:40:46.313Z,8112.00
2019-05-15T11:41:49.019Z,8884.00
2019-05-15T11:42:48.573Z,9436.00
2019-05-15T11:43:46.282Z,10072.00
2019-05-15T11:44:48.419Z,10672.00
2019-05-15T11:45:48.209Z,11108.00
2019-05-15T11:46:46.250Z,12568.00
2019-05-15T11:47:48.260Z,13088.00
2019-05-15T11:48:46.235Z,12824.00
2019-05-15T11:49:46.231Z,12512.00
2019-05-15T11:50:46.213Z,12912.00
2019-05-15T11:51:46.205Z,12480.00
2019-05-15T11:52:46.216Z,13028.00
2019-05-15T11:53:46.174Z,13304.00
2019-05-15T11:54:46.165Z,13448.00
2019-05-15T11:55:48.147Z,13748.00
2019-05-15T11:56:48.722Z,13944.00
2019-05-15T11:57:50.370Z,14056.00
2019-05-15T11:58:47.132Z,14332.00
2019-05-15T11:59:48.528Z,14320.00
2019-05-15T12:00:48.991Z,14064.00
2019-05-15T12:01:46.090Z,13548.00
2019-05-15T12:02:46.094Z,12628.00
2019-05-15T12:03:46.100Z,11772.00
2019-05-15T12:04:46.061Z,11264.00
2019-05-15T12:05:46.050Z,11328.00
2019-05-15T12:06:58.299Z,11348.00
2019-05-15T12:07:47.802Z,11160.00
2019-05-15T12:08:46.056Z,10552.00
2019-05-15T12:09:46.014Z,9984.00
2019-05-15T12:10:46.003Z,9528.00
2019-05-15T12:11:46.065Z,9192.00
2019-05-15T12:12:46.000Z,8976.00
2019-05-15T12:13:45.972Z,8844.00
2019-05-15T12:14:46.015Z,8576.00
2019-05-15T12:15:48.248Z,8260.00
2019-05-15T12:17:04.705Z,8200.00